createdAt,value
2022-12-01T00:02:03.354Z,102100.75
2022-12-01T00:05:06.220Z,102099.84
2022-12-01T00:08:09.102Z,102110.28
2022-12-01T00:11:12.570Z,102093.88
2022-12-01T00:14:16.490Z,102098.94
2022-12-01T00:17:19.366Z,102101.00
2022-12-01T00:20:21.853Z,102113.81
2022-12-01T00:23:24.595Z,102110.16
2022-12-01T00:26:28.150Z,102102.06
2022-12-01T00:29:30.530Z,102106.25
2022-12-01T00:32:34.219Z,102104.91
2022-12-01T00:35:38.693Z,102111.63
2022-12-01T00:38:41.422Z,102107.34
2022-12-01T00:41:44.569Z,102110.63
2022-12-01T00:44:48.259Z,102097.88
2022-12-01T00:47:51.781Z,102100.56
2022-12-01T00:50:55.556Z,102096.50
2022-12-01T00:53:58.480Z,102098.91
2022-12-01T00:57:01.997Z,102097.41
2022-12-01T01:00:07.067Z,102086.22
2022-12-01T01:03:11.957Z,102085.13
2022-12-01T01:06:15.472Z,102090.88
2022-12-01T01:09:18.405Z,102091.38
2022-12-01T01:12:20.752Z,102093.06
2022-12-01T01:15:23.492Z,102086.16
2022-12-01T01:18:27.928Z,102092.22
2022-12-01T01:21:32.134Z,102075.19
2022-12-01T01:24:34.870Z,102071.09
2022-12-01T01:27:37.118Z,102089.69
2022-12-01T01:30:42.448Z,102097.34
2022-12-01T01:33:46.411Z,102085.91
2022-12-01T01:36:49.689Z,102091.59
2022-12-01T01:39:52.433Z,102094.72
2022-12-01T01:42:54.792Z,102094.91
2022-12-01T01:45:57.648Z,102084.31
2022-12-01T01:49:10.977Z,102078.66
2022-12-01T01:52:18.147Z,102076.84
2022-12-01T01:55:24.080Z,102083.81
2022-12-01T01:58:28.838Z,102081.41
2022-12-01T02:01:32.050Z,102082.09
2022-12-01T02:04:40.596Z,102089.94
2022-12-01T02:07:43.915Z,102088.03
2022-12-01T02:10:46.138Z,102086.06
2022-12-01T02:14:04.515Z,102091.88
2022-12-01T02:17:45.321Z,102094.22
2022-12-01T02:21:09.011Z,102090.28
2022-12-01T02:24:14.377Z,102099.19
2022-12-01T02:27:29.432Z,102101.97
2022-12-01T02:31:02.380Z,102094.66
2022-12-01T02:34:14.969Z,102085.84
2022-12-01T02:37:39.170Z,102102.03
2022-12-01T02:40:47.425Z,102096.75
2022-12-01T02:43:55.294Z,102082.41
2022-12-01T02:47:05.986Z,102087.25
2022-12-01T02:50:09.583Z,102080.69
2022-12-01T02:53:14.946Z,102090.50
2022-12-01T02:56:25.185Z,102083.88
2022-12-01T02:59:27.680Z,102087.41
2022-12-01T03:02:55.813Z,102077.53
2022-12-01T03:06:17.802Z,102089.81
2022-12-01T03:09:42.118Z,102092.78
2022-12-01T03:13:02.530Z,102092.13
2022-12-01T03:16:15.584Z,102082.19
2022-12-01T03:19:36.744Z,102085.19
2022-12-01T03:22:45.860Z,102072.97
2022-12-01T03:25:51.025Z,102072.56
2022-12-01T03:28:58.179Z,102078.50
2022-12-01T03:32:14.216Z,102086.63
2022-12-01T03:35:27.326Z,102082.03
2022-12-01T03:38:32.133Z,102081.16
2022-12-01T03:41:43.129Z,102084.00
2022-12-01T03:44:55.441Z,102071.47
2022-12-01T03:47:58.475Z,102071.53
2022-12-01T03:51:17.532Z,102087.34
2022-12-01T03:54:31.650Z,102074.84
2022-12-01T03:57:39.480Z,102088.97
2022-12-01T04:00:42.093Z,102077.84
2022-12-01T04:03:47.154Z,102063.69
2022-12-01T04:06:51.306Z,102072.34
2022-12-01T04:09:54.651Z,102079.03
2022-12-01T04:12:59.842Z,102077.00
2022-12-01T04:16:02.142Z,102068.16
2022-12-01T04:19:04.759Z,102063.31
2022-12-01T04:22:08.367Z,102071.22
2022-12-01T04:25:11.656Z,102072.50
2022-12-01T04:28:15.679Z,102070.66
2022-12-01T04:31:18.902Z,102068.47
2022-12-01T04:34:21.408Z,102066.78
2022-12-01T04:37:24.559Z,102067.69
2022-12-01T04:40:27.095Z,102070.72
2022-12-01T04:43:29.756Z,102061.88
2022-12-01T04:46:33.189Z,102072.50
2022-12-01T04:49:38.624Z,102071.00
2022-12-01T04:52:41.196Z,102075.03
2022-12-01T04:55:43.815Z,102078.25
2022-12-01T04:58:47.790Z,102056.91
2022-12-01T05:01:51.521Z,102076.03
2022-12-01T05:04:54.102Z,102067.38
2022-12-01T05:07:57.318Z,102065.44
2022-12-01T05:11:00.165Z,102077.25
2022-12-01T05:14:02.752Z,102081.59
2022-12-01T05:17:05.906Z,102074.63
2022-12-01T05:20:27.817Z,102079.31
2022-12-01T05:23:35.703Z,102075.63
2022-12-01T05:26:38.368Z,102081.09
2022-12-01T05:29:41.129Z,102068.97
2022-12-01T05:32:44.070Z,102076.66
2022-12-01T05:35:46.505Z,102077.97
2022-12-01T05:38:49.168Z,102076.81
2022-12-01T05:41:51.580Z,102077.72
2022-12-01T05:44:54.427Z,102083.78
2022-12-01T05:47:58.433Z,102083.84
2022-12-01T05:51:01.178Z,102076.38
2022-12-01T05:54:03.726Z,102084.72
2022-12-01T05:57:07.189Z,102079.84
2022-12-01T06:00:10.559Z,102084.59
2022-12-01T06:03:15.989Z,102085.41
2022-12-01T06:06:18.518Z,102093.41
2022-12-01T06:09:20.987Z,102090.28
2022-12-01T06:12:24.251Z,102080.47
2022-12-01T06:15:28.119Z,102103.72
2022-12-01T06:18:35.677Z,102092.09
2022-12-01T06:21:38.765Z,102101.13
2022-12-01T06:24:41.232Z,102097.81
2022-12-01T06:27:43.733Z,102101.47
2022-12-01T06:30:46.230Z,102095.97
2022-12-01T06:33:48.996Z,102101.63
2022-12-01T06:36:51.677Z,102094.41
2022-12-01T06:39:54.496Z,102106.97
2022-12-01T06:43:01.997Z,102097.63
2022-12-01T06:46:05.985Z,102110.94
2022-12-01T06:49:14.594Z,102112.28
2022-12-01T06:52:17.701Z,102104.56
2022-12-01T06:55:20.593Z,102110.09
2022-12-01T06:58:23.761Z,102107.41
2022-12-01T07:01:27.661Z,102104.72
2022-12-01T07:04:31.291Z,102111.75
2022-12-01T07:07:37.408Z,102118.16
2022-12-01T07:10:40.683Z,102109.91
2022-12-01T07:13:49.584Z,102118.25
2022-12-01T07:16:53.010Z,102120.34
2022-12-01T07:19:55.972Z,102108.06
2022-12-01T07:22:58.551Z,102122.59
2022-12-01T07:26:02.171Z,102118.19
2022-12-01T07:29:05.063Z,102118.69
2022-12-01T07:32:07.373Z,102120.72
2022-12-01T07:35:10.897Z,102123.38
2022-12-01T07:38:19.120Z,102129.63
2022-12-01T07:41:24.804Z,102121.22
2022-12-01T07:44:27.634Z,102110.78
2022-12-01T07:47:29.935Z,102117.16
2022-12-01T07:50:32.518Z,102115.16
2022-12-01T07:53:35.466Z,102125.94
2022-12-01T07:56:38.100Z,102125.25
2022-12-01T07:59:40.346Z,102123.03
2022-12-01T08:02:42.964Z,102128.75
2022-12-01T08:05:45.304Z,102129.91
2022-12-01T08:08:49.162Z,102126.41
2022-12-01T08:11:51.430Z,102120.66
2022-12-01T08:14:54.258Z,102123.38
2022-12-01T08:17:56.990Z,102117.28
2022-12-01T08:20:59.527Z,102126.25
2022-12-01T08:24:01.963Z,102119.97
2022-12-01T08:27:04.524Z,102119.28
2022-12-01T08:30:07.667Z,102126.59
2022-12-01T08:33:10.653Z,102089.50
2022-12-01T08:36:13.561Z,102131.25
2022-12-01T08:39:16.254Z,102123.91
2022-12-01T08:42:18.874Z,102125.66
2022-12-01T08:45:23.521Z,102119.34
2022-12-01T08:48:26.315Z,102129.31
2022-12-01T08:51:29.766Z,102131.00
2022-12-01T08:54:32.491Z,102125.34
2022-12-01T08:57:35.369Z,102123.00
2022-12-01T09:00:37.904Z,102122.97
2022-12-01T09:03:41.382Z,102123.75
2022-12-01T09:06:45.960Z,102112.53
2022-12-01T09:09:49.049Z,102122.47
2022-12-01T09:12:52.819Z,102125.06
2022-12-01T09:16:00.423Z,102127.25
2022-12-01T09:19:07.938Z,102126.69
2022-12-01T09:22:11.957Z,102113.91
2022-12-01T09:25:14.894Z,102133.72
2022-12-01T09:28:18.624Z,102131.31
2022-12-01T09:31:23.589Z,102127.81
2022-12-01T09:34:27.954Z,102110.66
2022-12-01T09:37:30.404Z,102131.97
2022-12-01T09:40:37.558Z,102119.81
2022-12-01T09:43:55.312Z,102122.06
2022-12-01T09:47:25.533Z,102115.63
2022-12-01T09:50:30.436Z,102112.16
2022-12-01T09:53:34.143Z,102112.84
2022-12-01T09:56:46.156Z,102112.50
2022-12-01T09:59:49.394Z,102105.13
2022-12-01T10:02:55.369Z,102109.94
2022-12-01T10:09:42.974Z,102108.72
2022-12-01T10:12:48.656Z,102065.09
2022-12-01T10:16:11.172Z,102104.59
2022-12-01T10:19:21.047Z,102085.59
2022-12-01T10:22:42.803Z,102102.44
2022-12-01T10:25:51.800Z,102102.91
2022-12-01T10:29:00.858Z,102103.19
2022-12-01T10:32:29.787Z,102105.81
2022-12-01T10:35:38.981Z,102089.13
2022-12-01T10:38:41.710Z,102097.34
2022-12-01T10:41:44.159Z,102093.94
2022-12-01T10:44:46.938Z,102096.22
2022-12-01T10:48:08.893Z,102091.09
2022-12-01T10:51:16.878Z,102088.00
2022-12-01T10:54:20.990Z,102098.13
2022-12-01T10:57:23.409Z,102090.19
2022-12-01T11:04:02.320Z,102088.41
2022-12-01T11:07:06.812Z,102087.75
2022-12-01T11:10:18.402Z,102090.28
2022-12-01T11:13:29.874Z,102090.91
2022-12-01T11:16:41.231Z,102074.06
2022-12-01T11:19:44.186Z,102084.09
2022-12-01T11:22:46.730Z,102082.22
2022-12-01T11:26:01.752Z,102082.59
2022-12-01T11:29:23.717Z,102075.63
2022-12-01T11:32:28.771Z,102076.94
2022-12-01T11:35:34.945Z,102083.53
2022-12-01T11:38:37.557Z,102077.25
2022-12-01T11:41:42.812Z,102077.47
2022-12-01T11:45:23.227Z,102073.97
2022-12-01T11:48:30.480Z,102071.94
2022-12-01T11:51:37.813Z,102067.72
2022-12-01T11:54:56.051Z,102063.19
2022-12-01T11:58:02.972Z,102062.47
2022-12-01T12:01:20.537Z,102049.44
2022-12-01T12:04:48.574Z,102051.69
2022-12-01T12:08:25.978Z,102048.34
2022-12-01T12:11:49.989Z,102050.94
2022-12-01T12:15:02.228Z,102038.97
2022-12-01T12:18:32.177Z,102044.72
2022-12-01T12:21:43.584Z,102040.44
2022-12-01T12:24:54.848Z,102039.31
2022-12-01T12:28:10.047Z,102037.88
2022-12-01T12:31:23.679Z,102040.06
2022-12-01T12:35:01.005Z,102046.38
2022-12-01T12:38:22.571Z,102033.72
2022-12-01T12:41:42.020Z,102043.13
2022-12-01T12:44:50.667Z,102032.66
2022-12-01T12:48:08.836Z,102036.63
2022-12-01T12:51:34.328Z,102031.16
2022-12-01T12:54:59.024Z,102028.72
2022-12-01T12:58:25.283Z,102028.66
2022-12-01T13:01:41.062Z,102022.06
2022-12-01T13:04:52.093Z,102027.91
2022-12-01T13:07:57.295Z,102022.59
2022-12-01T13:11:14.405Z,102031.50
2022-12-01T13:14:27.482Z,102023.56
2022-12-01T13:17:42.242Z,102027.44
2022-12-01T13:20:44.918Z,102011.72
2022-12-01T13:23:48.804Z,102025.75
2022-12-01T13:26:59.308Z,102026.97
2022-12-01T13:30:02.393Z,102027.06
2022-12-01T13:33:06.009Z,102027.53
2022-12-01T13:39:36.357Z,102018.41
2022-12-01T13:42:40.022Z,102026.03
2022-12-01T13:45:42.808Z,102021.22
2022-12-01T13:48:49.197Z,102034.75
2022-12-01T13:52:18.300Z,102028.16
2022-12-01T13:55:27.404Z,102030.50
2022-12-01T13:58:36.047Z,102021.59
2022-12-01T14:01:45.736Z,102034.69
2022-12-01T14:04:48.640Z,102029.50
2022-12-01T14:07:55.047Z,102036.09
2022-12-01T14:11:00.700Z,102022.78
2022-12-01T14:14:10.671Z,102024.75
2022-12-01T14:17:34.078Z,102030.00
2022-12-01T14:20:46.274Z,102016.84
2022-12-01T14:23:57.443Z,102028.97
2022-12-01T14:27:00.673Z,102029.03
2022-12-01T14:30:46.213Z,102031.88
2022-12-01T14:33:59.367Z,102029.53
2022-12-01T14:37:12.209Z,102032.03
2022-12-01T14:40:20.205Z,102026.63
2022-12-01T14:43:41.872Z,102033.00
2022-12-01T14:47:24.243Z,102026.28
2022-12-01T14:50:34.111Z,102007.38
2022-12-01T14:53:39.346Z,102011.41
2022-12-01T14:56:43.189Z,102011.13
2022-12-01T14:59:45.540Z,102017.56
2022-12-01T15:03:00.613Z,102017.00
2022-12-01T15:06:04.010Z,102020.88
2022-12-01T15:09:33.376Z,102021.50
2022-12-01T15:12:37.300Z,102022.69
2022-12-01T15:15:51.521Z,102006.59
2022-12-01T15:18:54.476Z,102015.41
2022-12-01T15:21:58.385Z,102009.06
2022-12-01T15:25:15.720Z,102013.97
2022-12-01T15:28:22.503Z,102013.28
2022-12-01T15:31:25.524Z,102012.34
2022-12-01T15:34:34.139Z,102015.56
2022-12-01T15:37:45.007Z,102016.50
2022-12-01T15:44:22.064Z,102015.84
2022-12-01T15:47:36.926Z,102003.91
2022-12-01T15:50:46.510Z,102003.91
2022-12-01T15:53:59.094Z,102007.38
2022-12-01T15:57:01.518Z,102005.44
2022-12-01T16:00:04.427Z,102007.06
2022-12-01T16:03:15.183Z,102013.69
2022-12-01T16:06:21.671Z,102004.53
2022-12-01T16:09:37.872Z,102004.84
2022-12-01T16:12:41.414Z,102000.66
2022-12-01T16:15:44.748Z,102001.72
2022-12-01T16:19:02.741Z,102008.31
2022-12-01T16:22:12.102Z,102001.44
2022-12-01T16:25:37.016Z,101996.97
2022-12-01T16:28:39.770Z,101998.94
2022-12-01T16:32:05.188Z,101997.44
2022-12-01T16:35:07.789Z,102002.38
2022-12-01T16:38:16.648Z,101998.94
2022-12-01T16:41:38.277Z,101993.19
2022-12-01T16:44:42.172Z,101996.69
2022-12-01T16:47:47.591Z,101991.94
2022-12-01T16:50:51.921Z,101997.44
2022-12-01T16:53:57.013Z,101989.28
2022-12-01T16:57:00.775Z,101992.91
2022-12-01T17:00:04.221Z,101995.66
2022-12-01T17:03:08.368Z,101998.94
2022-12-01T17:06:14.958Z,101991.38
2022-12-01T17:09:18.036Z,102000.81
2022-12-01T17:12:25.312Z,101999.03
2022-12-01T17:15:27.774Z,101988.16
2022-12-01T17:18:30.622Z,101994.31
2022-12-01T17:21:33.206Z,101998.31
2022-12-01T17:24:36.430Z,101993.28
2022-12-01T17:27:39.534Z,101992.25
2022-12-01T17:30:43.507Z,101993.69
2022-12-01T17:33:46.782Z,101994.63
2022-12-01T17:36:51.195Z,102000.69
2022-12-01T17:39:54.270Z,101994.38
2022-12-01T17:42:57.850Z,101976.47
2022-12-01T17:46:00.738Z,101995.97
2022-12-01T17:49:08.843Z,102001.00
2022-12-01T17:52:11.813Z,101990.75
2022-12-01T17:55:14.483Z,101984.19
2022-12-01T17:58:21.678Z,101994.13
2022-12-01T18:01:29.976Z,101986.09
2022-12-01T18:04:33.164Z,101991.13
2022-12-01T18:07:36.208Z,101986.09
2022-12-01T18:10:38.835Z,101981.28
2022-12-01T18:13:44.459Z,101985.28
2022-12-01T18:16:47.142Z,101984.22
2022-12-01T18:19:49.696Z,101993.78
2022-12-01T18:22:53.389Z,101988.69
2022-12-01T18:25:56.159Z,101996.25
2022-12-01T18:29:07.881Z,101990.75
2022-12-01T18:32:10.272Z,101983.53
2022-12-01T18:35:13.931Z,101993.75
2022-12-01T18:38:16.878Z,101990.41
2022-12-01T18:41:20.269Z,101997.69
2022-12-01T18:44:22.949Z,101998.94
2022-12-01T18:47:25.477Z,101994.13
2022-12-01T18:50:29.874Z,101992.13
2022-12-01T18:53:33.848Z,101981.88
2022-12-01T18:56:38.229Z,101974.97
2022-12-01T18:59:40.477Z,101988.63
2022-12-01T19:02:43.379Z,101973.03
2022-12-01T19:05:46.281Z,101975.53
2022-12-01T19:08:49.802Z,101978.69
2022-12-01T19:11:59.860Z,101972.47
2022-12-01T19:15:03.530Z,101963.81
2022-12-01T19:18:06.234Z,101989.09
2022-12-01T19:21:12.071Z,101986.41
2022-12-01T19:24:14.435Z,101986.16
2022-12-01T19:27:17.133Z,101975.44
2022-12-01T19:30:20.448Z,101965.47
2022-12-01T19:33:23.637Z,101974.28
2022-12-01T19:36:28.642Z,101971.00
2022-12-01T19:39:31.455Z,101966.16
2022-12-01T19:42:34.157Z,101969.34
2022-12-01T19:45:40.974Z,101972.09
2022-12-01T19:48:44.014Z,101965.69
2022-12-01T19:51:46.612Z,101967.63
2022-12-01T19:54:49.438Z,101975.47
2022-12-01T19:57:52.421Z,101972.69
2022-12-01T20:00:55.292Z,101979.66
2022-12-01T20:03:58.127Z,101976.00
2022-12-01T20:07:01.720Z,101976.31
2022-12-01T20:10:04.710Z,101973.59
2022-12-01T20:13:07.079Z,101971.59
2022-12-01T20:16:12.965Z,101975.47
2022-12-01T20:19:15.713Z,101970.88
2022-12-01T20:22:17.994Z,101968.00
2022-12-01T20:25:20.467Z,101971.19
2022-12-01T20:28:23.057Z,101968.78
2022-12-01T20:31:26.719Z,101975.25
2022-12-01T20:34:35.572Z,101971.63
2022-12-01T20:37:38.419Z,101970.13
2022-12-01T20:40:40.882Z,101977.94
2022-12-01T20:43:43.640Z,101979.19
2022-12-01T20:46:47.704Z,101969.16
2022-12-01T20:49:53.034Z,101979.09
2022-12-01T20:52:59.341Z,101978.59
2022-12-01T20:56:06.202Z,101973.72
2022-12-01T20:59:08.730Z,101979.84
2022-12-01T21:02:11.387Z,101984.72
2022-12-01T21:05:16.260Z,101986.50
2022-12-01T21:08:19.563Z,101993.22
2022-12-01T21:11:46.447Z,101985.97
2022-12-01T21:15:01.024Z,101974.22
2022-12-01T21:18:14.203Z,101978.78
2022-12-01T21:21:31.531Z,101969.94
2022-12-01T21:24:42.041Z,101969.81
2022-12-01T21:27:49.042Z,101975.59
2022-12-01T21:30:56.296Z,101958.22
2022-12-01T21:33:58.719Z,101980.16
2022-12-01T21:37:02.449Z,101979.31
2022-12-01T21:40:19.451Z,101975.00
2022-12-01T21:43:24.348Z,101981.94
2022-12-01T21:46:28.819Z,101981.72
2022-12-01T21:49:40.156Z,101972.38
2022-12-01T21:52:45.833Z,101978.59
2022-12-01T21:55:49.472Z,101974.06
2022-12-01T21:58:52.681Z,101981.94
2022-12-01T22:01:57.050Z,101976.56
2022-12-01T22:05:00.132Z,101969.88
2022-12-01T22:08:14.731Z,101966.00
2022-12-01T22:11:22.897Z,101961.81
2022-12-01T22:14:29.859Z,101966.41
2022-12-01T22:17:32.650Z,101966.72
2022-12-01T22:20:35.157Z,101963.41
2022-12-01T22:23:37.397Z,101967.94
2022-12-01T22:26:45.473Z,101962.16
2022-12-01T22:29:49.356Z,101972.19
2022-12-01T22:33:00.415Z,101971.53
2022-12-01T22:36:03.277Z,101976.16
2022-12-01T22:39:26.343Z,101976.81
2022-12-01T22:42:36.118Z,101968.09
2022-12-01T22:45:39.237Z,101969.03
2022-12-01T22:48:46.921Z,101971.72
2022-12-01T22:51:49.541Z,101967.31
2022-12-01T22:54:52.071Z,101970.94
2022-12-01T22:57:56.589Z,101966.34
2022-12-01T23:01:03.543Z,101965.28
2022-12-01T23:04:14.107Z,101959.94
2022-12-01T23:07:32.600Z,101959.63
2022-12-01T23:10:35.553Z,101952.34
2022-12-01T23:13:39.092Z,101954.47
2022-12-01T23:16:41.803Z,101955.03
2022-12-01T23:19:44.396Z,101959.09
2022-12-01T23:22:47.754Z,101952.56
2022-12-01T23:25:51.251Z,101953.03
2022-12-01T23:28:53.572Z,101944.78
2022-12-01T23:31:55.827Z,101946.19
2022-12-01T23:35:00.341Z,101950.38
2022-12-01T23:38:04.232Z,101942.44
2022-12-01T23:41:08.944Z,101941.47
2022-12-01T23:44:35.884Z,101938.28
2022-12-01T23:47:38.680Z,101927.75
2022-12-01T23:50:41.064Z,101936.97
2022-12-01T23:53:44.197Z,101940.28
2022-12-01T23:56:56.478Z,101941.69
